createdAt,value
2023-08-14T00:09:41.109Z,99730.39
2023-08-14T00:19:46.981Z,99722.52
2023-08-14T00:29:52.692Z,99718.97
2023-08-14T00:39:59.480Z,99721.10
2023-08-14T00:50:06.144Z,99722.60
2023-08-14T01:00:14.614Z,99716.86
2023-08-14T01:10:20.712Z,99722.11
2023-08-14T01:20:30.391Z,99728.42
2023-08-14T01:30:36.201Z,99729.70
2023-08-14T01:40:47.709Z,99730.24
2023-08-14T01:50:55.455Z,99729.98
2023-08-14T02:01:01.187Z,99734.14
2023-08-14T02:11:11.026Z,99731.06
2023-08-14T02:21:17.520Z,99724.91
2023-08-14T02:31:23.395Z,99717.55
2023-08-14T02:41:30.740Z,99725.52
2023-08-14T02:51:36.382Z,99725.61
2023-08-14T03:01:42.120Z,99720.02
2023-08-14T03:11:47.722Z,99720.77
2023-08-14T03:21:54.003Z,99714.05
2023-08-14T03:32:00.144Z,99717.37
2023-08-14T03:42:06.234Z,99725.98
2023-08-14T03:52:12.027Z,99729.27
2023-08-14T04:02:18.259Z,99721.36
2023-08-14T04:12:24.104Z,99731.58
2023-08-14T04:22:29.712Z,99733.67
2023-08-14T04:32:36.624Z,99742.62
2023-08-14T04:42:42.338Z,99742.61
2023-08-14T04:52:48.076Z,99761.16
2023-08-14T05:02:53.863Z,99755.91
2023-08-14T05:12:59.718Z,99756.75
2023-08-14T05:23:06.534Z,99750.77
2023-08-14T05:33:12.412Z,99742.16
2023-08-14T05:43:18.413Z,99752.04
2023-08-14T05:53:24.435Z,99773.36
2023-08-14T06:03:43.619Z,99761.95
2023-08-14T06:13:50.350Z,99771.58
2023-08-14T06:23:56.080Z,99771.80
2023-08-14T06:34:02.241Z,99768.23
2023-08-14T06:44:10.668Z,99769.69
2023-08-14T06:54:16.523Z,99780.77
2023-08-14T07:04:22.437Z,99789.25
2023-08-14T07:14:30.673Z,99793.35
2023-08-14T07:24:37.082Z,99804.98
2023-08-14T07:34:42.855Z,99812.89
2023-08-14T07:44:48.869Z,99809.91
2023-08-14T07:54:54.733Z,99817.55
2023-08-14T08:05:00.700Z,99821.09
2023-08-14T08:15:08.177Z,99819.45
2023-08-14T08:25:14.076Z,99821.00
2023-08-14T08:35:19.847Z,99822.30
2023-08-14T08:45:29.645Z,99814.20
2023-08-14T08:55:35.804Z,99816.67
2023-08-14T09:05:42.582Z,99815.59
2023-08-14T09:15:48.505Z,99805.88
2023-08-14T09:25:54.338Z,99805.52
2023-08-14T09:36:01.764Z,99793.63
2023-08-14T09:46:07.622Z,99787.97
2023-08-14T09:56:12.323Z,99786.92
2023-08-14T10:06:20.084Z,99781.30
2023-08-14T10:16:32.593Z,99783.61
2023-08-14T10:26:38.516Z,99791.21
2023-08-14T10:36:44.433Z,99795.17
2023-08-14T10:46:50.560Z,99790.91
2023-08-14T10:57:01.657Z,99782.45
2023-08-14T11:07:12.807Z,99778.88
2023-08-14T11:17:18.798Z,99775.52
2023-08-14T11:27:26.772Z,99772.54
2023-08-14T11:37:33.106Z,99763.50
2023-08-14T11:47:45.752Z,99755.09
2023-08-14T11:57:52.374Z,99750.45
2023-08-14T12:08:03.320Z,99746.33
2023-08-14T12:18:16.114Z,99745.27
2023-08-14T12:28:22.912Z,99746.21
2023-08-14T12:38:29.773Z,99748.02
2023-08-14T12:48:35.538Z,99744.15
2023-08-14T12:58:41.377Z,99735.73
2023-08-14T13:08:47.226Z,99731.39
2023-08-14T13:18:53.354Z,99721.50
2023-08-14T13:28:59.107Z,99715.92
2023-08-14T13:39:06.774Z,99710.84
2023-08-14T13:49:12.600Z,99707.48
2023-08-14T13:59:18.739Z,99700.45
2023-08-14T14:09:24.579Z,99695.92
2023-08-14T14:19:31.333Z,99694.48
2023-08-14T14:29:35.555Z,99681.70
2023-08-14T14:39:41.524Z,99674.62
2023-08-14T14:49:48.199Z,99668.11
2023-08-14T14:59:54.199Z,99656.83
2023-08-14T15:10:00.273Z,99650.66
2023-08-14T15:20:07.345Z,99645.00
2023-08-14T15:30:15.536Z,99637.48
2023-08-14T15:40:21.432Z,99641.14
2023-08-14T15:50:27.308Z,99639.09
2023-08-14T16:00:34.130Z,99641.25
2023-08-14T16:10:40.072Z,99641.98
2023-08-14T16:20:45.999Z,99651.86
2023-08-14T16:30:52.653Z,99661.58
2023-08-14T16:40:58.555Z,99669.49
2023-08-14T16:51:06.233Z,99681.58
2023-08-14T17:01:11.918Z,99681.78
2023-08-14T17:11:17.658Z,99677.95
2023-08-14T17:21:23.560Z,99671.23
2023-08-14T17:31:30.596Z,99671.06
2023-08-14T17:41:34.869Z,99679.69
2023-08-14T17:51:40.715Z,99691.38
2023-08-14T18:01:46.757Z,99694.77
2023-08-14T18:11:52.637Z,99695.63
2023-08-14T18:21:58.574Z,99702.76
2023-08-14T18:32:06.344Z,99708.68
2023-08-14T18:42:12.161Z,99714.39
2023-08-14T18:52:17.978Z,99722.52
2023-08-14T19:02:24.075Z,99723.88
2023-08-14T19:12:30.354Z,99729.29
2023-08-14T19:22:35.986Z,99729.26
2023-08-14T19:32:41.810Z,99733.30
2023-08-14T19:42:47.813Z,99736.73
2023-08-14T19:52:53.606Z,99745.73
2023-08-14T20:02:59.500Z,99753.59
2023-08-14T20:13:06.466Z,99765.80
2023-08-14T20:23:12.539Z,99776.68
2023-08-14T20:33:18.480Z,99771.23
2023-08-14T20:43:30.139Z,99764.80
2023-08-14T20:53:35.835Z,99765.16
2023-08-14T21:03:41.773Z,99763.60
2023-08-14T21:13:47.880Z,99759.79
2023-08-14T21:23:53.647Z,99768.30
2023-08-14T21:33:59.604Z,99766.16
2023-08-14T21:44:05.735Z,99770.45
2023-08-14T21:54:13.077Z,99760.69
2023-08-14T22:04:18.848Z,99763.81
2023-08-14T22:14:25.573Z,99758.59
2023-08-14T22:24:40.800Z,99759.77
2023-08-14T22:34:47.249Z,99752.21
2023-08-14T22:44:52.981Z,99753.87
2023-08-14T22:54:58.923Z,99754.68
2023-08-14T23:05:05.205Z,99753.70
2023-08-14T23:15:12.824Z,99749.10
2023-08-14T23:25:19.677Z,99743.48
2023-08-14T23:35:25.536Z,99736.58
2023-08-14T23:45:31.935Z,99739.45
2023-08-14T23:55:37.736Z,99743.85
